createdAt,value
2023-05-05T00:00:27.571Z,0.50
2023-05-05T00:01:27.558Z,0.40
2023-05-05T00:02:27.692Z,0.35
2023-05-05T00:03:27.681Z,0.35
2023-05-05T00:04:27.587Z,0.42
2023-05-05T00:05:27.593Z,0.45
2023-05-05T00:06:27.606Z,0.47
2023-05-05T00:07:27.619Z,0.50
2023-05-05T00:08:27.604Z,0.50
2023-05-05T00:09:27.627Z,0.52
2023-05-05T00:10:27.631Z,0.52
2023-05-05T00:11:27.723Z,0.52
2023-05-05T00:12:27.769Z,0.59
2023-05-05T00:13:27.836Z,0.53
2023-05-05T00:14:27.888Z,0.58
2023-05-05T00:15:27.958Z,0.59
2023-05-05T00:16:28.088Z,0.63
2023-05-05T00:17:28.113Z,0.65
2023-05-05T00:18:28.191Z,0.65
2023-05-05T00:19:28.222Z,0.66
2023-05-05T00:20:28.277Z,0.59
2023-05-05T00:21:28.354Z,0.52
2023-05-05T00:22:28.403Z,0.58
2023-05-05T00:23:28.468Z,0.79
2023-05-05T00:24:28.512Z,0.58
2023-05-05T00:25:28.585Z,0.50
2023-05-05T00:26:28.645Z,0.50
2023-05-05T00:27:28.725Z,0.51
2023-05-05T00:28:28.778Z,0.50
2023-05-05T00:29:29.205Z,0.56
2023-05-05T00:30:28.889Z,0.55
2023-05-05T00:31:29.014Z,0.64
2023-05-05T00:32:29.031Z,0.52
2023-05-05T00:33:29.087Z,0.51
2023-05-05T00:34:29.141Z,0.43
2023-05-05T00:35:29.214Z,0.46
2023-05-05T00:36:29.307Z,0.53
2023-05-05T00:37:29.342Z,0.50
2023-05-05T00:38:29.403Z,0.49
2023-05-05T00:39:29.471Z,0.53
2023-05-05T00:40:29.537Z,0.46
2023-05-05T00:41:29.666Z,0.43
2023-05-05T00:42:29.640Z,0.52
2023-05-05T00:43:29.796Z,0.58
2023-05-05T00:44:29.811Z,0.52
2023-05-05T00:45:29.817Z,0.55
2023-05-05T00:46:29.943Z,0.71
2023-05-05T00:47:29.918Z,1.32
2023-05-05T00:48:29.912Z,2.31
2023-05-05T00:49:30.026Z,3.70
2023-05-05T00:50:29.981Z,5.45
2023-05-05T00:51:30.045Z,8.35
2023-05-05T00:52:30.106Z,11.83
2023-05-05T00:53:30.164Z,15.28
2023-05-05T00:54:30.232Z,14.41
2023-05-05T00:55:30.261Z,9.40
2023-05-05T00:56:30.288Z,9.33
2023-05-05T00:57:30.351Z,8.22
2023-05-05T00:58:30.424Z,8.78
2023-05-05T00:59:30.525Z,6.54
2023-05-05T01:00:30.569Z,6.76
2023-05-05T01:01:30.703Z,5.51
2023-05-05T01:02:30.975Z,3.45
2023-05-05T01:03:30.886Z,2.23
2023-05-05T01:04:30.871Z,1.80
2023-05-05T01:05:30.935Z,1.49
2023-05-05T01:06:30.884Z,1.16
2023-05-05T01:07:30.834Z,1.04
2023-05-05T01:08:30.899Z,1.26
2023-05-05T01:09:30.889Z,1.44
2023-05-05T01:10:30.924Z,1.10
2023-05-05T01:11:30.965Z,0.90
2023-05-05T01:12:31.056Z,0.87
2023-05-05T01:13:31.072Z,0.86
2023-05-05T01:14:31.086Z,0.97
2023-05-05T01:15:31.162Z,1.10
2023-05-05T01:16:31.226Z,1.12
2023-05-05T01:17:31.348Z,1.11
2023-05-05T01:18:31.313Z,1.13
2023-05-05T01:19:31.390Z,1.09
2023-05-05T01:20:31.477Z,1.20
2023-05-05T01:21:31.534Z,1.06
2023-05-05T01:22:31.719Z,0.92
2023-05-05T01:23:30.705Z,0.97
2023-05-05T01:24:31.768Z,0.87
2023-05-05T01:25:31.874Z,0.84
2023-05-05T01:26:31.897Z,0.93
2023-05-05T01:27:31.956Z,0.94
2023-05-05T01:28:32.008Z,0.97
2023-05-05T01:29:32.049Z,1.23
2023-05-05T01:30:32.084Z,1.31
2023-05-05T01:31:32.149Z,1.29
2023-05-05T01:32:32.190Z,1.54
2023-05-05T01:33:32.115Z,1.82
2023-05-05T01:34:32.142Z,2.41
2023-05-05T01:35:32.180Z,2.73
2023-05-05T01:36:32.193Z,2.90
2023-05-05T01:37:32.212Z,2.96
2023-05-05T01:38:32.227Z,1.87
2023-05-05T01:39:32.231Z,1.43
2023-05-05T01:40:32.283Z,1.41
2023-05-05T01:41:32.282Z,1.57
2023-05-05T01:42:32.339Z,1.72
2023-05-05T01:43:32.329Z,1.69
2023-05-05T01:44:32.351Z,1.55
2023-05-05T01:45:32.445Z,1.33
2023-05-05T01:46:32.403Z,0.98
2023-05-05T01:47:32.509Z,0.92
2023-05-05T01:48:32.452Z,1.05
2023-05-05T01:49:32.492Z,1.27
2023-05-05T01:50:32.539Z,1.47
2023-05-05T01:51:32.570Z,1.77
2023-05-05T01:52:32.595Z,1.58
2023-05-05T01:53:32.649Z,1.43
2023-05-05T01:54:32.662Z,1.43
2023-05-05T01:55:32.672Z,1.58
2023-05-05T01:56:32.744Z,1.84
2023-05-05T01:57:33.598Z,2.57
2023-05-05T01:58:32.781Z,4.10
2023-05-05T01:59:32.835Z,6.54
2023-05-05T02:00:32.890Z,9.33
2023-05-05T02:01:32.991Z,12.99
2023-05-05T02:02:33.003Z,15.88
2023-05-05T02:03:33.020Z,19.14
2023-05-05T02:04:33.027Z,20.88
2023-05-05T02:05:33.070Z,21.59
2023-05-05T02:06:33.086Z,24.35
2023-05-05T02:07:33.141Z,17.79
2023-05-05T02:08:33.228Z,11.13
2023-05-05T02:09:33.244Z,10.45
2023-05-05T02:10:33.317Z,9.57
2023-05-05T02:11:33.376Z,9.39
2023-05-05T02:12:33.460Z,8.60
2023-05-05T02:13:33.523Z,8.42
2023-05-05T02:14:33.562Z,7.53
2023-05-05T02:15:33.627Z,7.30
2023-05-05T02:16:33.646Z,5.79
2023-05-05T02:17:33.725Z,5.16
2023-05-05T02:18:33.713Z,4.82
2023-05-05T02:19:33.821Z,5.11
2023-05-05T02:20:33.864Z,5.08
2023-05-05T02:21:33.886Z,5.64
2023-05-05T02:22:34.008Z,6.09
2023-05-05T02:23:33.974Z,6.11
2023-05-05T02:24:34.007Z,5.81
2023-05-05T02:25:34.075Z,5.73
2023-05-05T02:26:34.098Z,5.00
2023-05-05T02:27:34.156Z,4.71
2023-05-05T02:28:34.160Z,4.94
2023-05-05T02:29:34.213Z,5.50
2023-05-05T02:30:34.246Z,7.03
2023-05-05T02:31:34.333Z,9.39
2023-05-05T02:32:34.427Z,11.25
2023-05-05T02:33:34.371Z,11.90
2023-05-05T02:34:34.416Z,12.26
2023-05-05T02:35:34.482Z,12.74
2023-05-05T02:36:34.512Z,14.22
2023-05-05T02:37:34.568Z,16.19
2023-05-05T02:38:34.611Z,16.89
2023-05-05T02:39:34.643Z,17.13
2023-05-05T02:40:34.692Z,14.36
2023-05-05T02:41:34.814Z,14.38
2023-05-05T02:42:34.817Z,14.57
2023-05-05T02:43:34.913Z,16.18
2023-05-05T02:44:34.931Z,16.95
2023-05-05T02:45:34.974Z,19.51
2023-05-05T02:46:35.116Z,22.52
2023-05-05T02:47:35.153Z,25.72
2023-05-05T02:48:35.134Z,32.50
2023-05-05T02:49:35.190Z,35.72
2023-05-05T02:50:35.250Z,33.88
2023-05-05T02:51:35.350Z,33.78
2023-05-05T02:52:35.363Z,35.13
2023-05-05T02:53:35.374Z,31.35
2023-05-05T02:54:35.427Z,26.36
2023-05-05T02:55:35.491Z,21.60
2023-05-05T02:56:35.546Z,19.66
2023-05-05T02:57:35.598Z,15.74
2023-05-05T02:58:35.654Z,16.98
2023-05-05T02:59:35.708Z,14.67
2023-05-05T03:00:35.773Z,14.32
2023-05-05T03:01:35.861Z,12.82
2023-05-05T03:02:35.954Z,10.27
2023-05-05T03:03:36.075Z,7.71
2023-05-05T03:04:35.990Z,7.63
2023-05-05T03:05:36.046Z,5.84
2023-05-05T03:06:36.124Z,5.82
2023-05-05T03:07:36.181Z,5.88
2023-05-05T03:08:36.209Z,5.51
2023-05-05T03:09:36.260Z,5.64
2023-05-05T03:10:36.321Z,5.46
2023-05-05T03:11:36.382Z,5.45
2023-05-05T03:12:36.468Z,6.13
2023-05-05T03:13:36.470Z,6.07
2023-05-05T03:14:36.536Z,6.34
2023-05-05T03:15:36.572Z,6.65
2023-05-05T03:16:36.734Z,6.87
2023-05-05T03:17:36.764Z,6.92
2023-05-05T03:18:36.759Z,5.95
2023-05-05T03:19:36.823Z,6.01
2023-05-05T03:20:36.893Z,6.29
2023-05-05T03:21:36.965Z,5.92
2023-05-05T03:22:37.029Z,5.20
2023-05-05T03:23:37.114Z,4.91
2023-05-05T03:24:37.167Z,4.64
2023-05-05T03:25:37.254Z,4.29
2023-05-05T03:26:37.338Z,4.08
2023-05-05T03:27:37.422Z,3.41
2023-05-05T03:28:37.489Z,3.38
2023-05-05T03:29:37.576Z,2.82
2023-05-05T03:30:37.655Z,2.69
2023-05-05T03:31:37.793Z,2.81
2023-05-05T03:32:37.838Z,2.48
2023-05-05T03:33:37.864Z,2.04
2023-05-05T03:34:38.018Z,1.91
2023-05-05T03:35:37.989Z,1.95
2023-05-05T03:36:38.058Z,1.97
2023-05-05T03:37:38.124Z,2.32
2023-05-05T03:38:38.184Z,2.51
2023-05-05T03:39:38.268Z,2.35
2023-05-05T03:40:44.043Z,2.43
2023-05-05T03:41:38.305Z,2.43
2023-05-05T03:42:38.313Z,2.46
2023-05-05T03:43:38.349Z,2.52
2023-05-05T03:44:38.343Z,2.56
2023-05-05T03:45:38.429Z,2.79
2023-05-05T03:46:38.389Z,2.52
2023-05-05T03:47:38.417Z,2.40
2023-05-05T03:48:38.424Z,2.12
2023-05-05T03:49:38.445Z,1.93
2023-05-05T03:50:38.576Z,2.00
2023-05-05T03:51:38.492Z,1.90
2023-05-05T03:52:38.542Z,1.85
2023-05-05T03:53:38.544Z,1.94
2023-05-05T03:54:38.552Z,2.11
2023-05-05T03:55:38.605Z,2.19
2023-05-05T03:56:38.595Z,2.38
2023-05-05T03:57:38.630Z,2.25
2023-05-05T03:58:38.644Z,2.61
2023-05-05T03:59:38.668Z,2.57
2023-05-05T04:00:38.684Z,2.81
2023-05-05T04:01:38.719Z,3.06
2023-05-05T04:02:39.513Z,2.95
2023-05-05T04:03:38.809Z,2.71
2023-05-05T04:04:38.781Z,2.93
2023-05-05T04:05:38.791Z,3.02
2023-05-05T04:06:38.827Z,3.39
2023-05-05T04:07:38.854Z,3.73
2023-05-05T04:08:38.871Z,4.41
2023-05-05T04:09:38.887Z,4.34
2023-05-05T04:10:38.915Z,4.08
2023-05-05T04:11:39.851Z,4.22
2023-05-05T04:12:39.033Z,4.66
2023-05-05T04:13:38.975Z,5.20
2023-05-05T04:14:38.990Z,4.63
2023-05-05T04:15:39.047Z,4.17
2023-05-05T04:16:39.030Z,4.03
2023-05-05T04:17:39.079Z,3.70
2023-05-05T04:18:39.055Z,3.83
2023-05-05T04:19:39.096Z,3.71
2023-05-05T04:20:39.093Z,3.22
2023-05-05T04:21:39.114Z,3.01
2023-05-05T04:22:39.171Z,2.93
2023-05-05T04:23:39.148Z,2.65
2023-05-05T04:24:39.207Z,2.85
2023-05-05T04:25:39.261Z,3.12
2023-05-05T04:26:39.292Z,3.70
2023-05-05T04:27:39.341Z,8.41
2023-05-05T04:28:39.339Z,19.37
2023-05-05T04:29:39.370Z,24.49
2023-05-05T04:30:39.433Z,34.09
2023-05-05T04:31:39.554Z,47.81
2023-05-05T04:32:39.549Z,39.70
2023-05-05T04:33:39.524Z,39.53
2023-05-05T04:34:39.548Z,49.69
2023-05-05T04:35:39.563Z,56.71
2023-05-05T04:36:39.602Z,59.15
2023-05-05T04:37:39.644Z,49.75
2023-05-05T04:38:39.706Z,52.50
2023-05-05T04:39:39.735Z,72.96
2023-05-05T04:40:39.794Z,90.22
2023-05-05T04:41:39.865Z,102.03
2023-05-05T04:42:39.937Z,93.53
2023-05-05T04:43:40.022Z,83.51
2023-05-05T04:44:40.067Z,72.19
2023-05-05T04:45:40.097Z,53.36
2023-05-05T04:46:40.146Z,28.07
2023-05-05T04:47:40.233Z,16.82
2023-05-05T04:48:40.225Z,11.38
2023-05-05T04:49:40.269Z,8.91
2023-05-05T04:50:40.288Z,7.18
2023-05-05T04:51:40.308Z,6.88
2023-05-05T04:52:40.334Z,2.94
2023-05-05T04:53:40.342Z,2.56
2023-05-05T04:54:40.351Z,2.62
2023-05-05T04:55:40.371Z,1.90
2023-05-05T04:56:40.370Z,1.99
2023-05-05T04:57:40.400Z,2.11
2023-05-05T04:58:40.404Z,2.08
2023-05-05T04:59:40.447Z,2.32
2023-05-05T05:00:40.424Z,2.75
2023-05-05T05:01:40.443Z,2.61
2023-05-05T05:02:40.562Z,2.08
2023-05-05T05:03:40.585Z,2.50
2023-05-05T05:04:40.512Z,3.24
2023-05-05T05:05:40.570Z,3.42
2023-05-05T05:06:40.640Z,2.87
2023-05-05T05:07:40.710Z,4.08
2023-05-05T05:08:40.716Z,34.15
2023-05-05T05:09:40.762Z,102.58
2023-05-05T05:10:40.813Z,160.35
2023-05-05T05:11:40.871Z,201.56
2023-05-05T05:12:41.387Z,235.92
2023-05-05T05:13:40.960Z,254.28
2023-05-05T05:14:40.993Z,244.21
2023-05-05T05:15:41.801Z,267.99
2023-05-05T05:16:41.128Z,231.26
2023-05-05T05:17:41.158Z,156.10
2023-05-05T05:18:41.149Z,158.39
2023-05-05T05:19:41.164Z,204.26
2023-05-05T05:20:41.200Z,259.13
2023-05-05T05:21:41.353Z,319.40
2023-05-05T05:22:41.280Z,326.72
2023-05-05T05:23:41.299Z,297.44
2023-05-05T05:24:41.346Z,251.34
2023-05-05T05:25:41.456Z,211.20
2023-05-05T05:26:41.421Z,174.84
2023-05-05T05:27:41.872Z,186.97
2023-05-05T05:28:41.859Z,244.33
2023-05-05T05:29:41.521Z,298.09
2023-05-05T05:30:41.554Z,331.69
2023-05-05T05:31:41.951Z,308.81
2023-05-05T05:32:41.688Z,250.58
2023-05-05T05:33:41.681Z,156.71
2023-05-05T05:34:41.701Z,154.50
2023-05-05T05:35:41.760Z,182.64
2023-05-05T05:36:41.869Z,194.23
2023-05-05T05:37:41.824Z,201.36
2023-05-05T05:38:41.832Z,210.30
2023-05-05T05:39:43.545Z,211.59
2023-05-05T05:40:41.860Z,251.91
2023-05-05T05:41:41.912Z,266.80
2023-05-05T05:42:41.860Z,285.69
2023-05-05T05:43:41.807Z,289.33
2023-05-05T05:44:41.758Z,297.36
2023-05-05T05:45:41.794Z,285.31
2023-05-05T05:46:41.888Z,295.08
2023-05-05T05:47:41.782Z,243.18
2023-05-05T05:48:41.662Z,268.52
2023-05-05T05:49:41.631Z,292.42
2023-05-05T05:50:42.328Z,340.77
2023-05-05T05:51:57.465Z,352.22
2023-05-05T05:52:41.884Z,353.49
2023-05-05T05:53:41.516Z,362.44
2023-05-05T05:54:41.492Z,374.36
2023-05-05T05:56:42.237Z,354.74
2023-05-05T05:57:44.608Z,354.11
2023-05-05T05:58:41.383Z,354.07
2023-05-05T05:59:41.375Z,352.93
2023-05-05T06:00:56.993Z,335.65
2023-05-05T06:02:41.342Z,353.58
2023-05-05T06:04:56.858Z,286.79
2023-05-05T06:05:48.590Z,353.53
2023-05-05T06:06:41.881Z,354.59
2023-05-05T06:07:41.125Z,353.80
2023-05-05T06:08:41.362Z,357.57
2023-05-05T06:09:42.041Z,371.65
2023-05-05T06:10:41.018Z,398.02
2023-05-05T06:11:41.876Z,423.85
2023-05-05T06:12:42.040Z,408.45
2023-05-05T06:15:48.341Z,404.19
2023-05-05T06:16:40.992Z,345.02
2023-05-05T06:17:40.836Z,347.37
2023-05-05T06:18:40.758Z,303.08
2023-05-05T06:19:40.803Z,228.92
2023-05-05T06:20:40.788Z,160.84
2023-05-05T06:21:41.181Z,133.51
2023-05-05T06:22:41.652Z,126.01
2023-05-05T06:23:41.877Z,154.15
2023-05-05T06:24:40.666Z,134.22
2023-05-05T06:25:40.695Z,111.80
2023-05-05T06:26:40.725Z,111.35
2023-05-05T06:27:41.086Z,96.19
2023-05-05T06:28:40.682Z,55.98
2023-05-05T06:29:40.587Z,43.79
2023-05-05T06:30:40.549Z,43.51
2023-05-05T06:31:40.659Z,42.12
2023-05-05T06:32:40.627Z,62.52
2023-05-05T06:33:40.599Z,82.79
2023-05-05T06:34:40.507Z,84.40
2023-05-05T06:35:40.461Z,91.03
2023-05-05T06:36:40.514Z,46.56
2023-05-05T06:37:40.407Z,42.70
2023-05-05T06:38:40.943Z,43.65
2023-05-05T06:39:41.369Z,44.17
2023-05-05T06:40:40.355Z,42.47
2023-05-05T06:41:40.372Z,45.53
2023-05-05T06:42:40.412Z,37.14
2023-05-05T06:43:41.341Z,42.77
2023-05-05T06:44:40.546Z,52.29
2023-05-05T06:45:41.951Z,61.57
2023-05-05T06:46:40.464Z,62.09
2023-05-05T06:47:40.442Z,67.16
2023-05-05T06:48:40.857Z,85.27
2023-05-05T06:49:40.329Z,130.63
2023-05-05T06:50:40.269Z,207.18
2023-05-05T06:51:42.695Z,244.53
2023-05-05T06:52:40.406Z,237.30
2023-05-05T12:17:52.790Z,0.50
2023-05-05T12:18:53.504Z,0.50
2023-05-05T12:19:53.486Z,0.50
2023-05-05T12:20:53.463Z,0.50
2023-05-05T12:21:53.462Z,0.50
2023-05-05T12:22:53.480Z,0.71
2023-05-05T12:23:53.495Z,0.71
2023-05-05T12:24:54.944Z,1.49
2023-05-05T12:25:53.683Z,4.15
2023-05-05T12:26:53.714Z,2.75
2023-05-05T12:27:53.767Z,1.06
2023-05-05T12:28:53.841Z,0.34
2023-05-05T12:29:53.872Z,0.34
2023-05-05T12:30:55.060Z,0.34
2023-05-05T12:31:53.925Z,0.34
2023-05-05T12:32:53.950Z,0.34
2023-05-05T12:33:54.016Z,0.39
2023-05-05T12:34:53.970Z,0.52
2023-05-05T12:35:53.988Z,0.34
2023-05-05T12:36:54.023Z,0.34
2023-05-05T12:37:54.048Z,0.60
2023-05-05T12:38:54.090Z,0.34
2023-05-05T12:39:54.205Z,0.36
2023-05-05T12:40:54.186Z,0.39
2023-05-05T12:41:54.272Z,1.02
2023-05-05T12:42:54.295Z,0.52
2023-05-05T12:43:54.418Z,0.86
2023-05-05T12:44:54.389Z,0.34
2023-05-05T12:45:54.487Z,0.35
2023-05-05T12:46:56.027Z,0.39
2023-05-05T12:47:54.681Z,0.58
2023-05-05T12:48:54.684Z,1.39
2023-05-05T12:49:54.819Z,2.01
2023-05-05T12:50:54.803Z,0.44
2023-05-05T12:51:54.837Z,0.69
2023-05-05T12:52:54.894Z,0.43
2023-05-05T12:53:54.958Z,0.79
2023-05-05T12:54:55.491Z,1.38
2023-05-05T12:55:55.052Z,0.58
2023-05-05T12:56:55.104Z,0.75
2023-05-05T12:57:55.103Z,0.60
2023-05-05T12:58:55.143Z,0.34
2023-05-05T12:59:55.496Z,0.34
2023-05-05T13:00:55.333Z,0.80
2023-05-05T13:01:55.553Z,1.43
2023-05-05T13:02:55.468Z,2.69
2023-05-05T13:03:55.489Z,2.01
2023-05-05T13:04:55.504Z,1.57
2023-05-05T13:05:55.631Z,2.58
2023-05-05T13:06:55.572Z,1.93
2023-05-05T13:07:55.596Z,0.69
2023-05-05T13:08:55.661Z,0.50
2023-05-05T13:09:56.033Z,0.61
2023-05-05T13:10:55.747Z,0.42
2023-05-05T13:11:55.815Z,0.83
2023-05-05T13:12:56.062Z,0.71
2023-05-05T13:13:55.907Z,0.87
2023-05-05T13:14:55.958Z,1.19
2023-05-05T13:15:56.033Z,0.80
2023-05-05T13:16:56.075Z,1.31
2023-05-05T13:17:56.220Z,2.99
2023-05-05T13:18:56.220Z,3.02
2023-05-05T13:19:56.303Z,1.90
2023-05-05T13:20:56.348Z,1.52
2023-05-05T13:21:56.474Z,3.75
2023-05-05T13:22:56.487Z,2.11
2023-05-05T13:24:05.124Z,0.83
2023-05-05T13:24:56.602Z,0.44
2023-05-05T13:25:56.997Z,0.59
2023-05-05T13:26:56.681Z,0.70
2023-05-05T13:27:56.722Z,1.30
2023-05-05T13:28:56.750Z,3.16
2023-05-05T13:29:56.786Z,3.13
2023-05-05T13:30:56.829Z,3.79
2023-05-05T13:31:56.869Z,8.30
2023-05-05T13:32:56.852Z,5.82
2023-05-05T13:33:56.875Z,2.32
2023-05-05T13:34:56.907Z,1.23
2023-05-05T13:35:56.917Z,0.55
2023-05-05T13:36:56.988Z,0.47
2023-05-05T13:37:57.066Z,0.57
2023-05-05T13:38:57.005Z,1.81
2023-05-05T13:39:57.032Z,7.15
2023-05-05T13:40:57.081Z,4.08
2023-05-05T13:41:57.101Z,1.97
2023-05-05T13:42:57.172Z,3.77
2023-05-05T13:43:57.228Z,4.15
2023-05-05T13:44:57.262Z,2.09
2023-05-05T13:46:05.542Z,0.99
2023-05-05T13:46:57.383Z,0.51
2023-05-05T13:47:57.378Z,0.72
2023-05-05T13:48:57.512Z,1.02
2023-05-05T13:49:57.378Z,0.71
2023-05-05T13:50:57.385Z,0.55
2023-05-05T13:51:57.406Z,0.96
2023-05-05T13:52:57.408Z,0.60
2023-05-05T13:53:57.573Z,0.55
2023-05-05T13:54:57.460Z,0.48
2023-05-05T13:55:57.492Z,0.46
2023-05-05T13:56:57.507Z,0.53
2023-05-05T13:57:57.515Z,0.75
2023-05-05T13:58:57.540Z,0.47
2023-05-05T13:59:57.593Z,0.58
2023-05-05T14:00:58.218Z,0.73
2023-05-05T14:01:57.594Z,1.06
2023-05-05T14:02:57.625Z,1.12
2023-05-05T14:03:58.000Z,1.64
2023-05-05T14:04:57.634Z,1.15
2023-05-05T14:05:58.060Z,1.72
2023-05-05T14:06:57.649Z,2.56
2023-05-05T14:07:57.662Z,1.01
2023-05-05T14:08:58.017Z,0.85
2023-05-05T14:09:57.804Z,0.40
2023-05-05T14:10:58.019Z,0.64
2023-05-05T14:11:57.727Z,1.52
2023-05-05T14:12:57.793Z,0.74
2023-05-05T14:13:57.772Z,0.42
2023-05-05T14:14:57.778Z,0.43
2023-05-05T14:15:57.838Z,0.99
2023-05-05T14:16:57.882Z,0.93
2023-05-05T14:17:57.882Z,0.53
2023-05-05T14:18:57.853Z,0.49
2023-05-05T14:19:57.884Z,0.50
2023-05-05T14:20:57.921Z,0.34
2023-05-05T14:21:57.928Z,0.51
2023-05-05T14:22:57.946Z,0.68
2023-05-05T14:23:58.005Z,1.03
2023-05-05T14:24:58.016Z,1.76
2023-05-05T14:25:58.196Z,3.15
2023-05-05T14:26:58.059Z,2.07
2023-05-05T14:27:58.125Z,2.13
2023-05-05T14:28:58.175Z,1.23
2023-05-05T14:29:58.234Z,0.77
2023-05-05T14:30:58.295Z,0.65
2023-05-05T14:31:58.334Z,0.68
2023-05-05T14:32:58.377Z,0.47
2023-05-05T14:33:58.526Z,0.63
2023-05-05T14:34:58.460Z,1.59
2023-05-05T14:35:58.531Z,1.39
2023-05-05T14:36:58.644Z,1.04
2023-05-05T14:37:58.641Z,0.75
2023-05-05T14:38:59.043Z,0.64
2023-05-05T14:39:58.771Z,0.42
2023-05-05T14:40:58.889Z,0.82
2023-05-05T14:41:58.972Z,1.78
2023-05-05T14:42:58.936Z,2.85
2023-05-05T14:43:59.538Z,1.38
2023-05-05T14:44:59.041Z,1.87
2023-05-05T14:45:59.155Z,1.51
2023-05-05T14:46:59.529Z,1.42
2023-05-05T14:47:59.341Z,2.25
2023-05-05T14:48:59.306Z,2.13
2023-05-05T14:49:59.340Z,3.21
2023-05-05T14:50:59.436Z,2.05
2023-05-05T14:51:59.387Z,1.97
2023-05-05T14:52:59.451Z,1.80
2023-05-05T14:53:59.507Z,2.47
2023-05-05T14:54:59.575Z,48.69
2023-05-05T14:55:59.657Z,3.22
2023-05-05T14:56:59.762Z,2.10
2023-05-05T14:57:59.932Z,2.69
2023-05-05T14:58:59.914Z,1.80
2023-05-05T15:00:00.009Z,1.71
2023-05-05T15:01:00.071Z,1.80
2023-05-05T15:02:00.268Z,3.16
2023-05-05T15:03:00.268Z,3.34
2023-05-05T15:04:00.339Z,4.38
2023-05-05T15:05:00.300Z,7.02
2023-05-05T15:06:00.349Z,10.72
2023-05-05T15:07:00.396Z,14.34
2023-05-05T15:08:00.454Z,7.79
2023-05-05T15:09:00.563Z,5.43
2023-05-05T15:10:00.608Z,4.83
2023-05-05T15:11:00.668Z,3.43
2023-05-05T15:12:00.723Z,3.33
2023-05-05T15:13:00.853Z,8.02
2023-05-05T15:14:00.894Z,22.60
2023-05-05T15:15:00.908Z,22.49
2023-05-05T15:16:01.054Z,20.36
2023-05-05T15:17:01.096Z,18.33
2023-05-05T15:18:01.248Z,15.14
2023-05-05T15:19:01.223Z,8.94
2023-05-05T15:20:01.309Z,7.66
2023-05-05T15:21:01.360Z,8.47
2023-05-05T15:22:01.460Z,12.36
2023-05-05T15:23:01.527Z,10.31
2023-05-05T15:24:01.596Z,10.46
2023-05-05T15:25:01.657Z,16.07
2023-05-05T15:26:01.750Z,11.45
2023-05-05T15:27:01.810Z,9.87
2023-05-05T15:28:01.877Z,10.18
2023-05-05T15:29:01.928Z,10.24
2023-05-05T15:30:02.053Z,7.21
2023-05-05T15:31:02.050Z,10.67
2023-05-05T15:32:02.147Z,6.48
2023-05-05T15:33:02.298Z,6.44
2023-05-05T15:34:02.308Z,7.77
2023-05-05T15:35:02.399Z,5.61
2023-05-05T15:36:02.452Z,7.78
2023-05-05T15:37:02.563Z,10.74
2023-05-05T15:38:02.643Z,6.32
2023-05-05T15:39:02.767Z,6.87
2023-05-05T15:40:02.985Z,14.60
2023-05-05T15:41:02.981Z,24.77
2023-05-05T15:42:03.062Z,29.06
2023-05-05T15:43:03.147Z,12.01
2023-05-05T15:44:03.192Z,27.47
2023-05-05T15:45:03.290Z,71.41
2023-05-05T15:46:03.377Z,113.18
2023-05-05T15:47:03.451Z,58.94
2023-05-05T15:48:03.521Z,25.65
2023-05-05T15:49:03.543Z,18.96
2023-05-05T15:50:03.628Z,13.18
2023-05-05T15:51:03.695Z,13.14
2023-05-05T15:52:03.748Z,12.57
2023-05-05T15:53:03.814Z,13.68
2023-05-05T15:54:03.950Z,20.63
2023-05-05T15:55:04.039Z,14.49
2023-05-05T15:56:04.101Z,12.16
2023-05-05T15:57:04.176Z,10.28
2023-05-05T15:58:04.264Z,15.20
2023-05-05T15:59:04.382Z,17.82
2023-05-05T16:00:04.432Z,28.73
2023-05-05T16:01:04.549Z,41.90
2023-05-05T16:02:04.713Z,44.99
2023-05-05T16:03:04.754Z,68.05
2023-05-05T16:04:04.736Z,106.26
2023-05-05T16:05:04.884Z,126.59
2023-05-05T16:06:04.823Z,114.28
2023-05-05T16:07:04.877Z,76.00
2023-05-05T16:08:04.939Z,114.75
2023-05-05T16:09:04.988Z,145.90
2023-05-05T16:10:05.027Z,239.20
2023-05-05T16:11:05.098Z,135.03
2023-05-05T16:12:05.190Z,89.28
2023-05-05T16:13:05.294Z,69.28
2023-05-05T16:14:05.377Z,66.33
2023-05-05T16:15:05.513Z,90.87
2023-05-05T16:16:05.571Z,159.68
2023-05-05T16:17:05.692Z,229.56
2023-05-05T16:18:05.926Z,208.81
2023-05-05T16:19:05.871Z,270.60
2023-05-05T16:20:06.001Z,260.75
2023-05-05T16:21:06.072Z,140.45
2023-05-05T16:22:06.153Z,145.57
2023-05-05T16:23:06.253Z,180.85
2023-05-05T16:24:06.326Z,163.16
2023-05-05T16:25:06.552Z,59.24
2023-05-05T16:26:06.480Z,55.18
2023-05-05T16:27:06.551Z,73.21
2023-05-05T16:28:06.645Z,42.01
2023-05-05T16:29:06.710Z,44.91
2023-05-05T16:30:06.839Z,34.00
2023-05-05T16:31:06.955Z,36.10
2023-05-05T16:32:07.058Z,43.50
2023-05-05T16:33:07.172Z,35.59
2023-05-05T16:34:07.309Z,49.59
2023-05-05T16:35:07.559Z,36.71
2023-05-05T16:36:07.321Z,33.55
2023-05-05T16:37:07.402Z,36.87
2023-05-05T16:38:07.471Z,31.39
2023-05-05T16:39:07.571Z,37.18
2023-05-05T16:40:08.528Z,40.52
2023-05-05T16:41:07.754Z,42.87
2023-05-05T16:42:07.803Z,33.34
2023-05-05T16:43:07.917Z,42.42
2023-05-05T16:44:07.987Z,65.11
2023-05-05T16:45:09.042Z,61.73
2023-05-05T16:46:08.129Z,61.79
2023-05-05T16:47:08.177Z,109.19
2023-05-05T16:48:09.237Z,174.28
2023-05-05T16:49:08.864Z,83.08
2023-05-05T16:50:08.654Z,96.05
2023-05-05T16:51:08.632Z,66.44
2023-05-05T16:52:08.724Z,58.09
2023-05-05T16:53:08.845Z,60.47
2023-05-05T16:54:08.969Z,138.11
2023-05-05T16:55:09.281Z,146.47
2023-05-05T16:56:09.211Z,146.79
2023-05-05T16:57:09.317Z,245.53
2023-05-05T16:58:09.440Z,190.26
2023-05-05T16:59:09.589Z,205.43
2023-05-05T17:00:09.620Z,199.55
2023-05-05T17:01:09.765Z,250.32
2023-05-05T17:02:09.862Z,169.89
2023-05-05T17:03:09.848Z,177.71
2023-05-05T17:04:09.943Z,165.31
2023-05-05T17:05:10.328Z,272.94
2023-05-05T17:06:10.188Z,472.60
2023-05-05T17:07:10.196Z,378.71
2023-05-05T17:08:10.304Z,274.60
2023-05-05T17:09:10.422Z,345.49
2023-05-05T17:10:10.548Z,434.92
2023-05-05T17:11:11.640Z,198.46
2023-05-05T17:12:10.806Z,212.80
2023-05-05T17:13:10.947Z,282.58
2023-05-05T17:14:11.005Z,281.83
2023-05-05T17:15:11.168Z,322.39
2023-05-05T17:16:11.188Z,406.02
2023-05-05T17:17:11.297Z,290.95
2023-05-05T17:18:11.464Z,435.22
2023-05-05T17:19:11.530Z,256.02
2023-05-05T17:20:11.665Z,178.52
2023-05-05T17:21:11.762Z,162.10
2023-05-05T17:22:11.976Z,244.17
2023-05-05T17:23:11.945Z,282.03
2023-05-05T17:24:12.066Z,392.43
2023-05-05T17:25:12.327Z,470.89
2023-05-05T17:26:12.278Z,787.65
2023-05-05T17:28:30.616Z,0.50
2023-05-05T17:29:31.603Z,0.50
2023-05-05T17:30:31.591Z,0.50
2023-05-05T17:31:31.598Z,0.50
2023-05-05T17:32:31.592Z,0.50
2023-05-05T17:33:31.578Z,0.50
2023-05-05T17:34:31.577Z,0.50
2023-05-05T17:35:31.581Z,0.61
2023-05-05T17:36:31.557Z,0.75
2023-05-05T17:37:31.631Z,0.66
2023-05-05T17:38:31.522Z,0.63
2023-05-05T17:39:31.509Z,0.75
2023-05-05T17:40:31.751Z,0.78
2023-05-05T17:41:32.300Z,0.50
2023-05-05T17:42:32.163Z,0.55
2023-05-05T17:43:31.736Z,0.83
2023-05-05T17:44:32.150Z,0.91
2023-05-05T17:45:31.912Z,1.12
2023-05-05T17:46:31.934Z,0.70
2023-05-05T17:47:31.869Z,0.69
2023-05-05T17:48:31.499Z,0.59
2023-05-05T17:49:31.462Z,0.48
2023-05-05T17:50:31.487Z,0.49
2023-05-05T17:51:31.471Z,0.49
2023-05-05T17:52:31.489Z,0.52
2023-05-05T17:53:31.628Z,0.61
2023-05-05T17:54:31.472Z,0.41
2023-05-05T17:55:31.483Z,0.36
2023-05-05T17:56:31.469Z,0.40
2023-05-05T17:57:31.476Z,0.38
2023-05-05T17:58:31.464Z,0.45
2023-05-05T17:59:31.469Z,0.57
2023-05-05T18:00:31.467Z,0.55
2023-05-05T18:01:31.529Z,0.55
2023-05-05T18:02:31.529Z,0.47
2023-05-05T18:03:31.800Z,0.76
2023-05-05T18:04:31.576Z,1.63
2023-05-05T18:05:31.643Z,1.82
2023-05-05T18:06:31.684Z,1.34
2023-05-05T18:07:31.727Z,1.11
2023-05-05T18:08:31.762Z,0.77
2023-05-05T18:09:31.919Z,0.84
2023-05-05T18:10:31.781Z,0.95
2023-05-05T18:11:31.789Z,1.27
2023-05-05T18:12:31.841Z,1.09
2023-05-05T18:13:31.812Z,0.83
2023-05-05T18:14:31.829Z,0.74
2023-05-05T18:15:31.914Z,0.55
2023-05-05T18:16:31.885Z,0.60
2023-05-05T18:17:31.926Z,0.56
2023-05-05T18:18:32.025Z,0.61
2023-05-05T18:19:32.067Z,0.53
2023-05-05T18:20:32.085Z,0.39
2023-05-05T18:21:32.114Z,0.52
2023-05-05T18:22:32.129Z,0.58
2023-05-05T18:23:32.139Z,0.50
2023-05-05T18:24:32.138Z,0.52
2023-05-05T18:25:32.373Z,0.63
2023-05-05T18:26:32.167Z,0.76
2023-05-05T18:27:32.155Z,0.83
2023-05-05T18:28:32.152Z,0.73
2023-05-05T18:29:33.088Z,0.69
2023-05-05T18:30:32.130Z,0.57
2023-05-05T18:31:32.157Z,0.62
2023-05-05T18:32:32.219Z,0.56
2023-05-05T18:33:32.115Z,0.56
2023-05-05T18:34:32.102Z,0.56
2023-05-05T18:35:32.097Z,0.49